Time;durP1;ratioP1;P1;durP2;ratioP2;P2;SDS_P1;SDS_P2;PMS_P1;PMS_P2;Temp;Humidity;BMP_temperature;BMP_pressure;BME280_temperature;BME280_humidity;BME280_pressure;Samples;Min_cycle;Max_cycle;Signal;HPM_P1;HPM_P2
2022/07/30 00:01:19;;;;;;;;;;;24.00;68.30;;;23.47;62.77;96280.44;4211194;33;19902;-90
2022/07/30 00:03:48;;;;;;;;;;;24.00;68.30;;;23.47;62.96;96279.63;4234875;33;19909;-90
2022/07/30 00:06:17;;;;;;;;;;;24.00;68.30;;;23.46;62.79;96276.00;4210762;33;19902;-90
2022/07/30 00:08:45;;;;;;;;;;;24.00;68.30;;;23.47;62.79;96274.03;4211139;33;20193;-88
2022/07/30 00:11:14;;;;;;;;;;;24.00;68.30;;;23.45;62.75;96277.16;4211189;33;19902;-90
2022/07/30 00:13:43;;;;;;;;;;;24.00;68.40;;;23.46;62.74;96278.78;4234685;33;19909;-89
2022/07/30 00:16:13;;;;;;;;;;;24.00;68.30;;;23.45;62.94;96268.78;4211072;33;19902;-91
2022/07/30 00:18:41;;;;;;;;;;;24.00;68.30;;;23.44;63.04;96262.41;4210927;33;20126;-91
2022/07/30 00:21:10;;;;;;;;;;;24.00;68.30;;;23.45;62.72;96266.00;4234542;33;19909;-91
2022/07/30 00:23:39;;;;;;;;;;;24.00;68.20;;;23.44;62.80;96256.81;4243037;33;19909;-91
2022/07/30 00:26:07;;;;;;;;;;;24.00;68.30;;;23.43;62.89;96263.56;4262765;33;19902;-90
2022/07/30 00:28:36;;;;;;;;;;;24.00;68.20;;;23.44;62.77;96258.78;4263167;33;20050;-90
2022/07/30 00:31:04;;;;;;;;;;;24.00;68.30;;;23.43;62.81;96265.56;4239247;33;20270;-90
2022/07/30 00:33:35;;;;;;;;;;;24.00;68.30;;;23.43;63.14;96257.19;4239542;33;19924;-91
2022/07/30 00:36:04;;;;;;;;;;;24.00;68.30;;;23.44;63.18;96253.19;4239110;33;20220;-91
2022/07/30 00:38:33;;;;;;;;;;;24.00;68.30;;;23.42;62.80;96253.56;4265530;33;20148;-91
2022/07/30 00:41:01;;;;;;;;;;;23.90;68.30;;;23.43;62.98;96254.38;4241682;33;20251;-91
2022/07/30 00:43:30;;;;;;;;;;;23.90;68.20;;;23.42;62.82;96249.97;4241864;33;19901;-90
2022/07/30 00:45:59;;;;;;;;;;;23.90;68.30;;;23.42;62.92;96256.34;4241598;33;20077;-91
2022/07/30 00:48:27;;;;;;;;;;;23.90;68.30;;;23.42;62.85;96255.53;4241917;33;19976;-91
2022/07/30 00:50:57;;;;;;;;;;;23.90;68.20;;;23.41;62.87;96256.72;4241723;33;20105;-90
2022/07/30 00:53:26;;;;;;;;;;;23.90;68.20;;;23.41;62.95;96259.50;4241750;33;20217;-91
2022/07/30 00:55:54;;;;;;;;;;;24.00;68.30;;;23.40;62.97;96253.09;4241523;33;19929;-90
2022/07/30 00:58:23;;;;;;;;;;;23.90;68.20;;;23.39;62.93;96253.44;4241560;33;20112;-91
2022/07/30 01:00:51;;;;;;;;;;;23.90;68.20;;;23.41;63.06;96253.91;4241485;33;19901;-91
2022/07/30 01:03:20;;;;;;;;;;;23.90;68.20;;;23.40;62.66;96246.69;4265428;33;20137;-91
2022/07/30 01:05:49;;;;;;;;;;;23.90;68.20;;;23.40;62.85;96241.13;4241150;33;19902;-91
2022/07/30 01:08:19;;;;;;;;;;;23.90;68.20;;;23.39;62.70;96239.47;4241528;33;20362;-91
2022/07/30 01:10:48;;;;;;;;;;;23.90;68.20;;;23.39;62.85;96239.47;4241418;33;20028;-91
2022/07/30 01:13:16;;;;;;;;;;;23.90;68.20;;;23.37;62.79;96241.81;4241548;33;20014;-91
2022/07/30 01:15:45;;;;;;;;;;;23.90;68.30;;;23.38;63.07;96246.25;4241331;33;20616;-91
2022/07/30 01:18:14;;;;;;;;;;;23.90;68.40;;;23.36;62.94;96235.44;4241355;33;19902;-91
2022/07/30 01:20:44;;;;;;;;;;;23.90;68.30;;;23.37;62.87;96230.63;4241323;33;19909;-90
2022/07/30 01:23:25;;;;;;;;;;;23.90;68.40;;;23.38;62.88;96237.84;4241275;33;20136;-90
2022/07/30 01:25:57;;;;;;;;;;;23.90;68.30;;;23.37;63.07;96241.81;4264912;33;19902;-91
2022/07/30 01:28:28;;;;;;;;;;;23.90;68.40;;;23.36;63.05;96232.63;4241888;33;20217;-90
2022/07/30 01:30:57;;;;;;;;;;;23.90;68.40;;;23.36;62.90;96229.00;4265083;33;19902;-91
2022/07/30 01:33:26;;;;;;;;;;;23.90;68.40;;;23.34;63.08;96229.38;4241055;33;20128;-90
2022/07/30 01:35:55;;;;;;;;;;;23.90;68.40;;;23.36;62.87;96226.22;4241289;33;19946;-91
2022/07/30 01:38:24;;;;;;;;;;;23.90;68.40;;;23.36;62.86;96234.59;4241272;33;19902;-90
2022/07/30 01:40:54;;;;;;;;;;;23.90;68.30;;;23.33;62.73;96224.94;4265052;33;20013;-90
2022/07/30 01:43:24;;;;;;;;;;;23.90;68.30;;;23.35;62.67;96222.63;4241107;33;19909;-91
2022/07/30 01:45:53;;;;;;;;;;;23.90;68.30;;;23.35;62.88;96227.38;4240913;33;19902;-91
2022/07/30 01:48:23;;;;;;;;;;;23.90;68.30;;;23.35;62.97;96224.59;4240803;33;19909;-90
2022/07/30 01:50:54;;;;;;;;;;;23.90;68.30;;;23.32;62.79;96222.50;4240978;33;19948;-90
2022/07/30 01:53:25;;;;;;;;;;;23.90;68.40;;;23.34;63.07;96225.75;4241127;33;20123;-91
2022/07/30 01:55:55;;;;;;;;;;;23.90;68.40;;;23.34;62.84;96214.56;4240743;33;20453;-92
2022/07/30 01:58:27;;;;;;;;;;;23.90;68.40;;;23.33;63.12;96212.94;4241093;33;20099;-91
2022/07/30 02:00:58;;;;;;;;;;;23.90;68.40;;;23.33;63.13;96213.78;4240828;33;19910;-91
2022/07/30 02:03:29;;;;;;;;;;;23.90;68.40;;;23.32;62.97;96206.56;4240695;33;19909;-91
2022/07/30 02:06:03;;;;;;;;;;;23.90;68.40;;;23.31;63.17;96204.09;4240623;33;19909;-91
2022/07/30 02:08:36;;;;;;;;;;;23.90;68.40;;;23.32;63.04;96217.75;4240824;33;20025;-91
2022/07/30 02:11:10;;;;;;;;;;;23.80;68.20;;;23.31;62.81;96215.28;4240680;33;20319;-91
2022/07/30 02:13:43;;;;;;;;;;;23.90;68.40;;;23.31;62.66;96201.31;4240777;33;19906;-90
2022/07/30 02:16:17;;;;;;;;;;;23.80;68.20;;;23.31;63.01;96207.72;4240715;33;19909;-90
2022/07/30 02:18:50;;;;;;;;;;;23.90;68.30;;;23.29;62.58;96207.25;4264488;33;19902;-91
2022/07/30 02:21:20;;;;;;;;;;;23.90;68.20;;;23.29;62.96;96196.91;4240327;33;19902;-91
2022/07/30 02:23:48;;;;;;;;;;;23.80;68.10;;;23.29;62.43;96194.13;4240076;33;20236;-91
2022/07/30 02:26:21;;;;;;;;;;;23.80;68.10;;;23.29;62.75;96196.91;4264129;33;19925;-90
2022/07/30 02:28:54;;;;;;;;;;;23.80;68.10;;;23.30;62.73;96197.72;4240679;33;20128;-91
2022/07/30 02:31:25;;;;;;;;;;;23.80;68.10;;;23.29;63.11;96185.75;4240491;33;19955;-91
2022/07/30 02:33:58;;;;;;;;;;;23.80;68.10;;;23.28;62.76;96181.31;4240839;33;20087;-91
2022/07/30 02:36:28;;;;;;;;;;;23.80;68.10;;;23.28;63.04;96172.94;4240386;33;20310;-91
2022/07/30 02:38:57;;;;;;;;;;;23.80;68.20;;;23.27;62.69;96171.31;4240457;33;19902;-91
2022/07/30 02:41:28;;;;;;;;;;;23.80;68.10;;;23.27;63.09;96171.31;4240165;33;19910;-91
2022/07/30 02:43:58;;;;;;;;;;;23.80;68.20;;;23.25;62.71;96176.44;4240300;33;19902;-91
2022/07/30 02:46:27;;;;;;;;;;;23.80;68.20;;;23.26;62.74;96166.91;4240425;33;19909;-91
2022/07/30 02:49:31;;;;;;;;;;;23.80;68.00;;;23.25;62.46;96168.06;4263373;33;19908;-91
2022/07/30 02:52:00;;;;;;;;;;;23.80;68.00;;;23.26;62.87;96164.09;4240197;33;19933;-91
2022/07/30 02:54:28;;;;;;;;;;;23.80;67.90;;;23.27;62.74;96156.53;4240200;33;20023;-92
2022/07/30 02:57:00;;;;;;;;;;;23.80;68.00;;;23.24;62.83;96158.06;4264053;33;20235;-91
2022/07/30 02:59:28;;;;;;;;;;;23.80;68.00;;;23.23;62.55;96148.06;4239914;33;19902;-91
2022/07/30 03:01:57;;;;;;;;;;;23.80;67.90;;;23.25;62.76;96167.22;4240223;33;20110;-91
2022/07/30 03:04:25;;;;;;;;;;;23.80;67.90;;;23.25;62.54;96162.47;4240090;33;20257;-91
2022/07/30 03:06:55;;;;;;;;;;;23.80;67.90;;;23.23;62.86;96159.22;4263838;33;20149;-91
2022/07/30 03:09:23;;;;;;;;;;;23.80;68.00;;;23.22;62.69;96160.38;4264160;33;19925;-91
2022/07/30 03:11:53;;;;;;;;;;;23.80;67.90;;;23.22;62.73;96168.75;4263800;33;20047;-91
2022/07/30 03:14:23;;;;;;;;;;;23.80;68.00;;;23.23;62.53;96170.41;4240164;33;20446;-91
2022/07/30 03:16:56;;;;;;;;;;;23.80;67.90;;;23.24;62.36;96168.41;4263862;33;19958;-91
2022/07/30 03:19:25;;;;;;;;;;;23.80;67.90;;;23.23;62.74;96161.22;4240111;33;19902;-91
2022/07/30 03:21:54;;;;;;;;;;;23.80;67.90;;;23.22;62.24;96156.78;4239663;33;19909;-91
2022/07/30 03:24:24;;;;;;;;;;;23.80;67.80;;;23.22;62.61;96165.16;4240055;33;19901;-90
2022/07/30 03:26:53;;;;;;;;;;;23.80;67.80;;;23.22;62.45;96163.19;4239846;33;20138;-91
2022/07/30 03:29:23;;;;;;;;;;;23.80;67.90;;;23.23;62.45;96162.00;4239827;33;19901;-90
2022/07/30 03:31:52;;;;;;;;;;;23.80;67.80;;;23.21;62.45;96158.75;4263798;33;19902;-90
2022/07/30 03:34:21;;;;;;;;;;;23.80;67.80;;;23.24;62.48;96166.44;4239903;33;20356;-90
2022/07/30 03:36:50;;;;;;;;;;;23.80;67.70;;;23.23;62.36;96164.81;4239793;33;20125;-91
2022/07/30 03:39:20;;;;;;;;;;;23.80;67.70;;;23.24;62.38;96155.25;4239706;33;19909;-90
2022/07/30 03:41:48;;;;;;;;;;;23.80;67.60;;;23.25;62.13;96161.66;4239723;33;19901;-90
2022/07/30 03:44:18;;;;;;;;;;;23.80;67.70;;;23.26;62.63;96164.09;4239612;33;19902;-90
2022/07/30 03:46:49;;;;;;;;;;;23.80;67.70;;;23.27;62.33;96160.16;4239647;33;19902;-91
2022/07/30 03:49:19;;;;;;;;;;;23.80;67.70;;;23.29;62.50;96157.81;4239699;33;20353;-90
2022/07/30 03:51:50;;;;;;;;;;;23.80;67.70;;;23.28;62.60;96161.78;4239618;33;19909;-90
2022/07/30 03:54:19;;;;;;;;;;;23.80;67.70;;;23.31;62.70;96165.00;4263516;33;19995;-90
2022/07/30 03:57:09;;;;;;;;;;;23.80;67.80;;;23.33;62.46;96162.66;4239479;33;20144;-92
2022/07/30 03:59:43;;;;;;;;;;;23.90;67.90;;;23.32;62.60;96164.66;4239575;33;19902;-91
2022/07/30 04:02:14;;;;;;;;;;;23.90;67.90;;;23.35;62.44;96171.50;4263444;33;20213;-90
2022/07/30 04:05:01;;;;;;;;;;;23.90;67.90;;;23.35;62.34;96166.75;4264129;33;20129;-90
2022/07/30 04:07:29;;;;;;;;;;;23.90;67.80;;;23.36;62.60;96167.56;4239081;33;19902;-90
2022/07/30 04:09:58;;;;;;;;;;;23.90;67.80;;;23.37;62.30;96171.97;4239082;33;20007;-90
2022/07/30 04:12:43;;;;;;;;;;;23.90;67.70;;;23.40;62.36;96174.88;4239337;33;19901;-90
2022/07/30 04:15:12;;;;;;;;;;;23.90;67.80;;;23.42;62.43;96178.13;4239278;33;19902;-91
2022/07/30 04:17:46;;;;;;;;;;;24.00;67.80;;;23.43;62.57;96179.75;4239345;33;20253;-91
2022/07/30 04:20:20;;;;;;;;;;;24.00;67.70;;;23.46;62.43;96177.41;4262964;33;19902;-90
2022/07/30 04:22:49;;;;;;;;;;;24.00;67.70;;;23.45;62.52;96173.78;4262986;33;20153;-91
2022/07/30 04:25:19;;;;;;;;;;;24.00;67.70;;;23.47;62.37;96171.47;4262753;33;19917;-90
2022/07/30 04:27:48;;;;;;;;;;;24.00;67.60;;;23.50;62.24;96170.75;4262786;33;20085;-90
2022/07/30 04:30:17;;;;;;;;;;;24.00;67.60;;;23.50;62.29;96173.56;4239065;33;20098;-91
2022/07/30 04:32:47;;;;;;;;;;;24.10;67.60;;;23.53;62.31;96174.81;4239177;33;20055;-90
2022/07/30 04:35:35;;;;;;;;;;;24.10;67.60;;;23.54;62.05;96173.66;4262172;33;19909;-92
2022/07/30 04:38:14;;;;;;;;;;;24.10;67.40;;;23.55;62.07;96164.94;4239268;33;20148;-92
2022/07/30 04:40:46;;;;;;;;;;;24.10;67.50;;;23.57;61.95;96167.34;4262760;33;20095;-91
2022/07/30 04:43:15;;;;;;;;;;;24.10;67.40;;;23.57;61.97;96165.34;4262733;33;20209;-91
2022/07/30 04:45:43;;;;;;;;;;;24.10;67.30;;;23.57;62.17;96161.75;4238330;33;20141;-91
2022/07/30 04:48:14;;;;;;;;;;;24.10;67.30;;;23.57;62.13;96165.34;4262608;33;19924;-91
2022/07/30 04:50:45;;;;;;;;;;;24.10;67.20;;;23.56;62.13;96160.94;4262574;33;19902;-91
2022/07/30 04:53:18;;;;;;;;;;;24.10;67.30;;;23.56;62.00;96160.94;4238894;33;20041;-92
2022/07/30 04:55:57;;;;;;;;;;;24.10;67.30;;;23.56;62.22;96163.72;4238539;33;20146;-91
2022/07/30 04:58:29;;;;;;;;;;;24.10;67.40;;;23.55;62.19;96156.53;4238884;33;19909;-91
2022/07/30 05:00:57;;;;;;;;;;;24.10;67.30;;;23.53;62.05;96161.66;4238877;33;19901;-91
2022/07/30 05:03:31;;;;;;;;;;;24.10;67.40;;;23.54;62.56;96168.06;4262488;33;20028;-91
2022/07/30 05:06:00;;;;;;;;;;;24.10;67.40;;;23.52;62.26;96168.44;4261925;33;19989;-92
2022/07/30 05:08:32;;;;;;;;;;;24.10;67.50;;;23.51;62.08;96164.00;4238550;33;19906;-91
2022/07/30 05:11:03;;;;;;;;;;;24.10;67.50;;;23.49;62.53;96163.53;4262232;33;19901;-91
2022/07/30 05:13:32;;;;;;;;;;;24.00;67.50;;;23.49;62.49;96166.34;4238711;33;19902;-91
2022/07/30 05:16:00;;;;;;;;;;;24.00;67.50;;;23.49;62.13;96171.13;4238142;33;20038;-91
2022/07/30 05:18:31;;;;;;;;;;;24.00;67.50;;;23.50;62.61;96172.72;4238471;33;19971;-91
2022/07/30 05:21:00;;;;;;;;;;;24.00;67.60;;;23.49;62.48;96177.50;4262339;33;20124;-90
2022/07/30 05:23:35;;;;;;;;;;;24.10;67.70;;;23.51;62.19;96180.75;4263773;33;19902;-91
2022/07/30 05:26:20;;;;;;;;;;;24.00;67.50;;;23.50;62.17;96184.72;4240351;33;19909;-90
2022/07/30 05:28:51;;;;;;;;;;;24.00;67.60;;;23.51;62.30;96180.75;4264713;33;19901;-92
2022/07/30 05:31:22;;;;;;;;;;;24.10;67.60;;;23.52;62.53;96185.19;4240628;33;20232;-91
2022/07/30 05:33:59;;;;;;;;;;;24.10;67.60;;;23.51;62.27;96180.75;4264739;33;20162;-90
2022/07/30 05:36:33;;;;;;;;;;;24.10;67.60;;;23.54;62.51;96193.19;4240308;33;19912;-91
2022/07/30 05:39:02;;;;;;;;;;;24.10;67.60;;;23.54;62.09;96185.66;4264685;33;20451;-91
2022/07/30 05:41:59;;;;;;;;;;;24.10;67.40;;;23.55;62.29;96198.47;4240565;33;19902;-91
2022/07/30 05:44:34;;;;;;;;;;;24.10;67.40;;;23.56;62.36;96186.09;4264348;33;19902;-89
2022/07/30 05:47:03;;;;;;;;;;;24.10;67.40;;;23.56;62.18;96183.28;4263978;33;19909;-89
2022/07/30 05:49:33;;;;;;;;;;;24.10;67.40;;;23.59;61.89;96192.97;4240824;33;20244;-90
2022/07/30 05:52:08;;;;;;;;;;;24.20;67.20;;;23.58;62.40;96191.34;4240688;33;19909;-89
2022/07/30 05:54:37;;;;;;;;;;;24.10;67.20;;;23.59;62.41;96182.59;4264281;33;19902;-90
2022/07/30 05:57:18;;;;;;;;;;;24.10;67.20;;;23.59;62.33;96190.16;4263907;33;20019;-90
2022/07/30 05:59:46;;;;;;;;;;;24.10;67.20;;;23.60;62.22;96187.00;4264318;33;19901;-89
2022/07/30 06:02:33;;;;;;;;;;;24.20;67.20;;;23.59;62.04;96182.59;4264376;33;20087;-90
2022/07/30 06:05:27;;;;;;;;;;;24.10;67.20;;;23.59;62.26;96188.16;4268130;33;20042;-90
2022/07/30 06:07:58;;;;;;;;;;;24.10;67.20;;;23.58;61.86;96192.13;4264393;33;20151;-89
2022/07/30 06:10:29;;;;;;;;;;;24.10;67.20;;;23.57;62.30;96195.28;4264085;33;20111;-90
2022/07/30 06:12:58;;;;;;;;;;;24.10;67.20;;;23.55;61.96;96192.88;4240362;33;20254;-90
2022/07/30 06:15:27;;;;;;;;;;;24.10;67.30;;;23.55;62.35;96190.06;4263576;33;20083;-91
2022/07/30 06:17:56;;;;;;;;;;;24.10;67.40;;;23.54;62.32;96194.03;4240492;33;19967;-90
2022/07/30 06:20:39;;;;;;;;;;;24.10;67.40;;;23.54;61.88;96194.03;4240555;33;19958;-90
2022/07/30 06:23:33;;;;;;;;;;;24.10;67.40;;;23.52;62.46;96190.78;4260967;33;20109;-91
2022/07/30 06:26:29;;;;;;;;;;;24.10;67.40;;;23.50;62.42;96190.31;4239593;33;20074;-90
2022/07/30 06:28:57;;;;;;;;;;;24.00;67.40;;;23.50;62.28;96187.53;4240253;33;19906;-90
2022/07/30 06:31:31;;;;;;;;;;;24.10;67.50;;;23.51;62.44;96188.31;4264143;33;20144;-90
2022/07/30 06:34:00;;;;;;;;;;;24.00;67.40;;;23.50;62.43;96190.31;4263904;33;19901;-90
2022/07/30 06:36:35;;;;;;;;;;;24.10;67.60;;;23.50;62.35;96184.72;4239603;33;19965;-90
2022/07/30 06:39:12;;;;;;;;;;;24.00;67.50;;;23.49;62.20;96185.91;4263967;33;20403;-91
2022/07/30 06:42:01;;;;;;;;;;;24.00;67.40;;;23.51;62.36;96191.13;4263437;33;19980;-90
2022/07/30 06:44:50;;;;;;;;;;;24.00;67.40;;;23.50;62.53;96186.69;4239680;33;19909;-90
2022/07/30 06:47:27;;;;;;;;;;;24.00;67.50;;;23.50;62.19;96190.31;4211172;33;19909;-90
2022/07/30 06:49:58;;;;;;;;;;;24.00;67.60;;;23.50;62.61;96195.06;4234796;33;20060;-89
2022/07/30 06:52:29;;;;;;;;;;;24.00;67.60;;;23.51;62.47;96185.53;4258963;33;19902;-91
2022/07/30 06:54:58;;;;;;;;;;;24.00;67.50;;;23.53;62.14;96183.19;4234857;33;20036;-89
2022/07/30 06:57:37;;;;;;;;;;;24.00;67.50;;;23.54;62.28;96182.84;4211218;33;20043;-90
2022/07/30 07:00:11;;;;;;;;;;;24.10;67.70;;;23.55;62.46;96180.88;4258707;33;20144;-90
2022/07/30 07:02:43;;;;;;;;;;;24.10;67.60;;;23.56;62.05;96188.88;4237698;33;20236;-90
2022/07/30 07:05:14;;;;;;;;;;;24.10;67.60;;;23.54;62.21;96185.66;4239526;33;19909;-90
2022/07/30 07:07:50;;;;;;;;;;;24.10;67.40;;;23.59;62.04;96188.16;4239620;33;19909;-89
2022/07/30 07:10:21;;;;;;;;;;;24.10;67.40;;;23.63;62.27;96193.06;4239215;33;19909;-89
2022/07/30 07:13:00;;;;;;;;;;;24.10;67.40;;;23.67;61.60;96191.19;4239586;33;20092;-89
2022/07/30 07:15:29;;;;;;;;;;;24.20;67.00;;;23.70;61.70;96188.47;4262657;33;20518;-89
2022/07/30 07:17:57;;;;;;;;;;;24.20;66.90;;;23.75;61.63;96184.59;4263009;33;19908;-89
2022/07/30 07:20:37;;;;;;;;;;;24.30;66.90;;;23.80;61.73;96192.75;4262897;33;20089;-89
2022/07/30 07:23:10;;;;;;;;;;;24.30;66.80;;;23.82;61.63;96190.38;4239106;33;19910;-89
2022/07/30 07:25:39;;;;;;;;;;;24.30;66.70;;;23.86;61.15;96191.31;4261982;33;19909;-89
2022/07/30 07:28:08;;;;;;;;;;;24.40;66.40;;;23.93;61.18;96187.09;4238995;33;20228;-89
2022/07/30 07:30:36;;;;;;;;;;;24.40;66.20;;;23.94;61.37;96189.50;4238934;33;19910;-88
2022/07/30 07:33:07;;;;;;;;;;;24.50;66.30;;;23.95;60.75;96184.72;4262796;33;20060;-88
2022/07/30 07:35:36;;;;;;;;;;;24.50;66.20;;;24.02;60.62;96188.56;4238150;33;19910;-88
2022/07/30 07:38:04;;;;;;;;;;;24.50;66.10;;;24.04;60.83;96186.22;4262216;33;19988;-88
2022/07/30 07:40:36;;;;;;;;;;;24.50;65.90;;;24.04;60.54;96179.81;4238447;33;20213;-88
2022/07/30 07:43:04;;;;;;;;;;;24.60;65.90;;;24.04;60.70;96182.63;4286420;33;19910;-88
2022/07/30 07:45:35;;;;;;;;;;;24.50;65.80;;;24.00;60.99;96179.72;4209267;33;19978;-88
2022/07/30 07:48:08;;;;;;;;;;;24.60;65.90;;;23.99;61.20;96180.06;4210288;33;20160;-88
2022/07/30 07:50:47;;;;;;;;;;;24.50;66.00;;;23.96;61.06;96175.19;4238239;33;20213;-88
2022/07/30 07:53:28;;;;;;;;;;;24.50;66.00;;;23.92;61.00;96186.25;4262067;33;19924;-88
2022/07/30 07:55:58;;;;;;;;;;;24.50;66.10;;;23.90;61.26;96183.00;4261583;33;19902;-88
2022/07/30 07:58:27;;;;;;;;;;;24.50;66.30;;;23.87;61.58;96178.94;4262107;33;20121;-87
2022/07/30 08:01:00;;;;;;;;;;;24.50;66.40;;;23.84;61.24;96179.66;4261976;33;19905;-88
2022/07/30 08:03:48;;;;;;;;;;;24.40;66.40;;;23.83;61.43;96186.41;4261994;33;19913;-88
2022/07/30 08:06:40;;;;;;;;;;;24.40;66.40;;;23.80;61.41;96181.56;4261962;33;19902;-88
2022/07/30 08:09:27;;;;;;;;;;;24.40;66.60;;;23.79;61.67;96179.94;4261823;33;20217;-88
2022/07/30 08:12:15;;;;;;;;;;;24.30;66.60;;;23.80;61.57;96189.94;4238316;33;20243;-87
2022/07/30 08:15:03;;;;;;;;;;;24.30;66.70;;;23.82;61.20;96184.78;4262904;33;20131;-88
2022/07/30 08:17:49;;;;;;;;;;;24.40;66.60;;;23.86;61.43;96182.13;4262714;33;19910;-86
2022/07/30 08:20:31;;;;;;;;;;;24.30;66.50;;;23.88;61.49;96176.97;4238150;33;20102;-87
2022/07/30 08:23:00;;;;;;;;;;;24.40;66.40;;;23.86;61.36;96182.13;4261806;33;20226;-87
2022/07/30 08:25:29;;;;;;;;;;;24.40;66.40;;;23.85;61.20;96178.50;4261319;33;20173;-88
2022/07/30 08:28:01;;;;;;;;;;;24.40;66.50;;;23.84;61.34;96178.88;4237981;33;20136;-87
2022/07/30 08:30:30;;;;;;;;;;;24.40;66.60;;;23.82;61.65;96182.00;4237925;33;20087;-87
2022/07/30 08:32:59;;;;;;;;;;;24.40;66.60;;;23.81;61.43;96177.59;4237921;33;19902;-87
2022/07/30 08:35:27;;;;;;;;;;;24.40;66.60;;;23.79;61.50;96177.16;4237561;33;20102;-87
2022/07/30 08:37:56;;;;;;;;;;;24.30;66.70;;;23.79;61.49;96173.53;4238107;33;19901;-86
2022/07/30 08:40:26;;;;;;;;;;;24.30;66.70;;;23.79;61.70;96179.94;4237949;33;20257;-87
2022/07/30 08:43:06;;;;;;;;;;;24.30;66.80;;;23.81;61.65;96182.38;4285638;33;19909;-87
2022/07/30 08:45:35;;;;;;;;;;;24.30;66.80;;;23.82;61.79;96172.81;4260989;33;19948;-87
2022/07/30 08:48:22;;;;;;;;;;;24.40;66.90;;;23.84;61.65;96165.69;4261701;33;19902;-87
2022/07/30 08:50:52;;;;;;;;;;;24.40;66.70;;;23.85;61.61;96167.31;4238055;33;20232;-87
2022/07/30 08:53:40;;;;;;;;;;;24.40;66.70;;;23.87;61.55;96164.19;4246871;33;19903;-86
2022/07/30 08:56:09;;;;;;;;;;;24.40;66.70;;;23.85;61.90;96158.91;4237407;33;20083;-87
2022/07/30 08:58:40;;;;;;;;;;;24.40;66.70;;;23.87;61.81;96162.19;4239798;33;20357;-87
2022/07/30 09:01:08;;;;;;;;;;;24.40;66.80;;;23.89;61.63;96153.41;4264130;33;19902;-87
2022/07/30 09:03:38;;;;;;;;;;;24.50;66.90;;;23.87;61.58;96153.78;4240193;33;20104;-87
2022/07/30 09:06:06;;;;;;;;;;;24.50;66.90;;;23.87;61.22;96153.00;4239523;33;19901;-87
2022/07/30 09:08:36;;;;;;;;;;;24.40;66.80;;;23.86;61.87;96149.38;4240246;33;19902;-87
2022/07/30 09:11:04;;;;;;;;;;;24.40;66.90;;;23.86;62.01;96142.97;4240384;33;20196;-87
2022/07/30 09:13:36;;;;;;;;;;;24.40;66.90;;;23.84;61.89;96143.31;4263987;33;20365;-87
2022/07/30 09:16:07;;;;;;;;;;;24.40;66.90;;;23.82;62.08;96137.28;4263511;33;19909;-87
2022/07/30 09:18:43;;;;;;;;;;;24.40;67.00;;;23.81;61.82;96135.66;4240232;33;20352;-87
2022/07/30 09:21:16;;;;;;;;;;;24.40;67.10;;;23.83;61.93;96129.72;4239971;33;19909;-87
2022/07/30 09:23:59;;;;;;;;;;;24.30;67.10;;;23.84;61.96;96118.16;4240027;33;20390;-87
2022/07/30 09:26:54;;;;;;;;;;;24.40;67.00;;;23.85;61.98;96119.78;4263917;33;19902;-87
2022/07/30 09:29:41;;;;;;;;;;;24.40;67.00;;;23.88;61.38;96115.47;4264729;33;19901;-87
2022/07/30 09:32:46;;;;;;;;;;;24.40;66.90;;;23.88;61.53;96116.28;4234959;33;20221;-87
2022/07/30 09:35:47;;;;;;;;;;;24.40;66.80;;;23.89;61.59;96109.50;4244819;33;19902;-87
2022/07/30 09:38:47;;;;;;;;;;;24.50;66.90;;;23.90;61.84;96104.72;4263582;33;19902;-87
2022/07/30 09:41:40;;;;;;;;;;;24.40;66.80;;;23.92;61.69;96102.38;4264430;33;20080;-87
2022/07/30 09:44:13;;;;;;;;;;;24.50;66.80;;;23.95;61.63;96100.84;4263527;33;19912;-87
2022/07/30 09:46:46;;;;;;;;;;;24.50;66.60;;;23.96;61.77;96094.09;4237421;33;19909;-87
2022/07/30 09:49:22;;;;;;;;;;;24.50;66.50;;;23.98;61.58;96095.41;4239836;33;20224;-87
2022/07/30 09:51:51;;;;;;;;;;;24.50;66.40;;;23.99;61.27;96077.44;4263595;33;19902;-87
2022/07/30 09:54:21;;;;;;;;;;;24.50;66.40;;;24.00;60.87;96075.44;4263369;33;19980;-87
2022/07/30 09:57:06;;;;;;;;;;;24.60;66.40;;;24.01;61.38;96075.06;4239028;33;20280;-87
2022/07/30 09:59:35;;;;;;;;;;;24.60;66.30;;;24.01;61.45;96068.69;4239505;33;19908;-87
2022/07/30 10:02:03;;;;;;;;;;;24.60;66.30;;;24.01;61.18;96072.28;4263300;33;20020;-87
2022/07/30 10:04:52;;;;;;;;;;;24.60;66.20;;;24.03;60.99;96061.53;4264211;33;19909;-86
2022/07/30 10:07:22;;;;;;;;;;;24.60;66.10;;;24.03;61.23;96058.75;4238677;33;19902;-87
2022/07/30 10:09:52;;;;;;;;;;;24.60;66.10;;;24.03;61.32;96052.38;4262809;33;19964;-88
2022/07/30 10:12:22;;;;;;;;;;;24.60;66.10;;;24.04;61.04;96051.19;4239250;33;19902;-88
2022/07/30 10:14:50;;;;;;;;;;;24.60;66.00;;;24.03;61.46;96041.97;4263138;33;20061;-87
2022/07/30 10:17:20;;;;;;;;;;;24.60;66.00;;;24.03;61.14;96043.97;4263436;33;19908;-87
2022/07/30 10:20:30;;;;;;;;;;;24.60;66.00;;;24.02;61.02;96033.97;4262149;33;20052;-88
2022/07/30 10:23:17;;;;;;;;;;;24.60;66.00;;;24.03;61.09;96039.19;4237540;33;20169;-86
2022/07/30 10:26:04;;;;;;;;;;;24.60;66.00;;;24.03;61.34;96028.00;4254918;33;19909;-87
2022/07/30 10:28:51;;;;;;;;;;;24.60;66.00;;;24.01;61.06;96019.16;4263938;33;19911;-87
2022/07/30 10:31:19;;;;;;;;;;;24.60;66.00;;;24.02;61.13;96017.19;4264071;33;20165;-88
2022/07/30 10:33:48;;;;;;;;;;;24.60;66.00;;;24.02;61.02;96020.78;4239219;33;20129;-88
2022/07/30 10:36:18;;;;;;;;;;;24.60;66.00;;;24.00;61.25;96006.38;4262578;33;20141;-88
2022/07/30 10:38:47;;;;;;;;;;;24.60;66.00;;;24.01;61.02;96012.75;4239432;33;19909;-88
2022/07/30 10:41:25;;;;;;;;;;;24.60;66.00;;;24.00;61.00;96011.13;4262998;33;19902;-87
2022/07/30 10:44:22;;;;;;;;;;;24.60;66.10;;;23.99;61.00;96007.53;4262859;33;20213;-88
2022/07/30 10:46:57;;;;;;;;;;;24.60;66.00;;;23.99;61.17;96009.50;4262441;33;20392;-88
2022/07/30 10:49:26;;;;;;;;;;;24.60;66.00;;;23.97;60.97;96001.50;4262644;33;20378;-88
2022/07/30 10:51:56;;;;;;;;;;;24.50;66.10;;;23.98;61.13;96000.31;4262705;33;19909;-88
2022/07/30 10:54:38;;;;;;;;;;;24.50;66.00;;;23.96;61.12;95994.28;4238739;33;19902;-87
2022/07/30 10:57:10;;;;;;;;;;;24.60;66.00;;;23.96;60.91;95993.47;4238372;33;20120;-88
2022/07/30 11:00:14;;;;;;;;;;;24.60;66.00;;;23.97;61.33;95992.28;4262686;33;19902;-88
2022/07/30 11:03:22;;;;;;;;;;;24.50;66.00;;;23.95;61.14;95995.44;4238744;33;19944;-87
2022/07/30 11:05:51;;;;;;;;;;;24.60;66.00;;;23.95;60.97;95986.22;4263071;33;19969;-87
2022/07/30 11:08:36;;;;;;;;;;;24.50;65.90;;;23.95;61.13;95986.22;4238806;33;20190;-87
2022/07/30 11:11:45;;;;;;;;;;;24.50;66.00;;;23.95;61.03;95986.22;4238924;33;20086;-87
2022/07/30 11:14:14;;;;;;;;;;;24.50;66.10;;;23.95;61.28;95980.63;4262500;33;20044;-87
2022/07/30 11:17:01;;;;;;;;;;;24.50;66.00;;;23.95;61.19;95986.22;4261918;33;20303;-86
2022/07/30 11:19:30;;;;;;;;;;;24.50;66.10;;;23.95;60.96;95980.63;4238300;33;19902;-87
2022/07/30 11:22:30;;;;;;;;;;;24.50;66.00;;;23.95;61.32;95977.81;4238190;33;19908;-87
2022/07/30 11:25:00;;;;;;;;;;;24.50;66.00;;;23.95;60.90;95969.44;4238279;33;19969;-86
2022/07/30 11:27:36;;;;;;;;;;;24.50;66.00;;;23.95;61.17;95970.25;4261813;33;19948;-86
2022/07/30 11:30:06;;;;;;;;;;;24.50;66.00;;;23.93;60.69;95964.22;4238518;33;20064;-87
2022/07/30 11:32:35;;;;;;;;;;;24.50;66.00;;;23.93;61.14;95949.44;4263151;33;20249;-86
2022/07/30 11:35:16;;;;;;;;;;;24.50;65.90;;;23.94;61.00;95949.06;4238120;33;20146;-86
2022/07/30 11:38:06;;;;;;;;;;;24.50;66.00;;;23.93;61.00;95950.25;4237975;33;20054;-86
2022/07/30 11:40:38;;;;;;;;;;;24.50;65.90;;;23.94;61.09;95940.69;4262114;33;20124;-86
2022/07/30 11:43:19;;;;;;;;;;;24.50;66.00;;;23.93;61.16;95939.06;4238239;33;20103;-86
2022/07/30 11:45:49;;;;;;;;;;;24.50;66.00;;;23.95;60.74;95941.47;4261573;33;19901;-87
2022/07/30 11:48:19;;;;;;;;;;;24.50;65.80;;;23.95;61.06;95935.88;4261890;33;19902;-86